sensor_id;sensor_type;location;lat;lon;timestamp;pressure;altitude;pressure_sealevel;temperature;humidity
22753;BME280;11543;43.144;24.684;2022-11-03T00:01:56;99230.59;;;18.07;43.46
22753;BME280;11543;43.144;24.684;2022-11-03T00:04:22;99209.56;;;17.95;43.41
22753;BME280;11543;43.144;24.684;2022-11-03T00:06:49;99223.84;;;18.03;43.64
22753;BME280;11543;43.144;24.684;2022-11-03T00:09:16;99231.81;;;18.05;44.14
22753;BME280;11543;43.144;24.684;2022-11-03T00:11:44;99228.38;;;17.96;44.19
22753;BME280;11543;43.144;24.684;2022-11-03T00:14:11;99227.59;;;18.02;44.04
22753;BME280;11543;43.144;24.684;2022-11-03T00:16:38;99236.41;;;18.04;44.16
22753;BME280;11543;43.144;24.684;2022-11-03T00:19:04;99227.94;;;17.93;44.51
22753;BME280;11543;43.144;24.684;2022-11-03T00:21:30;99239.81;;;17.92;44.67
22753;BME280;11543;43.144;24.684;2022-11-03T00:23:56;99244.97;;;17.87;44.77
22753;BME280;11543;43.144;24.684;2022-11-03T00:26:26;99230.63;;;17.71;45.37
22753;BME280;11543;43.144;24.684;2022-11-03T00:28:57;99227.72;;;17.58;45.54
22753;BME280;11543;43.144;24.684;2022-11-03T00:31:26;99228.47;;;17.67;45.46
22753;BME280;11543;43.144;24.684;2022-11-03T00:33:53;99221.25;;;17.59;45.66
22753;BME280;11543;43.144;24.684;2022-11-03T00:36:26;99220.41;;;17.59;45.75
22753;BME280;11543;43.144;24.684;2022-11-03T00:38:53;99218.47;;;17.52;45.89
22753;BME280;11543;43.144;24.684;2022-11-03T00:41:20;99220.34;;;17.52;46.13
22753;BME280;11543;43.144;24.684;2022-11-03T00:43:46;99219.69;;;17.50;46.23
22753;BME280;11543;43.144;24.684;2022-11-03T00:46:13;99233.63;;;17.47;46.35
22753;BME280;11543;43.144;24.684;2022-11-03T00:48:38;99207.66;;;17.38;46.38
22753;BME280;11543;43.144;24.684;2022-11-03T00:51:12;99226.34;;;17.33;46.82
22753;BME280;11543;43.144;24.684;2022-11-03T00:53:50;99227.16;;;17.33;46.95
22753;BME280;11543;43.144;24.684;2022-11-03T00:56:17;99227.66;;;17.37;47.09
22753;BME280;11543;43.144;24.684;2022-11-03T00:58:44;99221.94;;;17.32;47.13
22753;BME280;11543;43.144;24.684;2022-11-03T01:03:37;99229.22;;;17.31;47.38
22753;BME280;11543;43.144;24.684;2022-11-03T01:06:11;99216.91;;;17.29;47.38
22753;BME280;11543;43.144;24.684;2022-11-03T01:08:55;99219.59;;;17.29;47.89
22753;BME280;11543;43.144;24.684;2022-11-03T01:11:22;99228.78;;;17.28;48.00
22753;BME280;11543;43.144;24.684;2022-11-03T01:14:07;99214.94;;;17.23;48.07
22753;BME280;11543;43.144;24.684;2022-11-03T01:16:33;99215.78;;;17.23;48.06
22753;BME280;11543;43.144;24.684;2022-11-03T01:18:59;99215.69;;;17.16;48.47
22753;BME280;11543;43.144;24.684;2022-11-03T01:21:25;99219.06;;;17.18;48.42
22753;BME280;11543;43.144;24.684;2022-11-03T01:23:50;99206.91;;;17.14;48.39
22753;BME280;11543;43.144;24.684;2022-11-03T01:26:16;99209.72;;;17.06;48.77
22753;BME280;11543;43.144;24.684;2022-11-03T01:28:43;99202.69;;;17.12;48.39
22753;BME280;11543;43.144;24.684;2022-11-03T01:31:12;99196.81;;;17.08;48.75
22753;BME280;11543;43.144;24.684;2022-11-03T01:33:38;99206.63;;;17.09;48.68
22753;BME280;11543;43.144;24.684;2022-11-03T01:36:04;99195.13;;;17.07;48.67
22753;BME280;11543;43.144;24.684;2022-11-03T01:38:33;99219.81;;;17.12;48.68
22753;BME280;11543;43.144;24.684;2022-11-03T01:41:00;99214.94;;;17.23;48.29
22753;BME280;11543;43.144;24.684;2022-11-03T01:43:27;99221.28;;;17.30;47.75
22753;BME280;11543;43.144;24.684;2022-11-03T01:48:57;99248.22;;;17.46;47.22
22753;BME280;11543;43.144;24.684;2022-11-03T01:51:24;99247.84;;;17.19;47.53
22753;BME280;11543;43.144;24.684;2022-11-03T01:53:52;99249.38;;;17.37;47.26
22753;BME280;11543;43.144;24.684;2022-11-03T01:56:20;99251.31;;;17.43;47.20
22753;BME280;11543;43.144;24.684;2022-11-03T01:58:48;99269.56;;;17.49;47.01
22753;BME280;11543;43.144;24.684;2022-11-03T02:01:15;99255.50;;;17.31;47.34
22753;BME280;11543;43.144;24.684;2022-11-03T02:03:49;99235.88;;;17.29;47.29
22753;BME280;11543;43.144;24.684;2022-11-03T02:06:17;99254.03;;;17.43;47.22
22753;BME280;11543;43.144;24.684;2022-11-03T02:08:52;99254.78;;;17.51;47.24
22753;BME280;11543;43.144;24.684;2022-11-03T02:11:19;99252.25;;;17.50;47.08
22753;BME280;11543;43.144;24.684;2022-11-03T02:14:03;99258.88;;;17.62;46.67
22753;BME280;11543;43.144;24.684;2022-11-03T02:16:30;99246.78;;;17.65;46.67
22753;BME280;11543;43.144;24.684;2022-11-03T02:18:58;99244.66;;;17.60;46.70
22753;BME280;11543;43.144;24.684;2022-11-03T02:21:29;99248.78;;;17.56;47.15
22753;BME280;11543;43.144;24.684;2022-11-03T02:24:23;99233.94;;;17.37;47.46
22753;BME280;11543;43.144;24.684;2022-11-03T02:26:54;99248.03;;;17.33;47.74
22753;BME280;11543;43.144;24.684;2022-11-03T02:29:20;99247.47;;;17.08;48.24
22753;BME280;11543;43.144;24.684;2022-11-03T02:31:55;99257.28;;;17.24;48.07
22753;BME280;11543;43.144;24.684;2022-11-03T02:34:41;99236.72;;;17.00;48.48
22753;BME280;11543;43.144;24.684;2022-11-03T02:37:16;99250.47;;;16.98;49.13
22753;BME280;11543;43.144;24.684;2022-11-03T02:39:46;99238.69;;;16.91;48.74
22753;BME280;11543;43.144;24.684;2022-11-03T02:42:14;99250.56;;;16.90;49.29
22753;BME280;11543;43.144;24.684;2022-11-03T02:44:41;99239.81;;;16.82;49.46
22753;BME280;11543;43.144;24.684;2022-11-03T02:47:10;99246.81;;;16.91;49.45
22753;BME280;11543;43.144;24.684;2022-11-03T02:49:55;99222.00;;;16.65;49.74
22753;BME280;11543;43.144;24.684;2022-11-03T02:57:41;99251.22;;;16.92;48.98
22753;BME280;11543;43.144;24.684;2022-11-03T03:00:08;99265.06;;;17.12;48.56
22753;BME280;11543;43.144;24.684;2022-11-03T03:03:17;99268.97;;;17.09;48.65
22753;BME280;11543;43.144;24.684;2022-11-03T03:05:41;99274.22;;;17.11;48.48
22753;BME280;11543;43.144;24.684;2022-11-03T03:08:10;99275.34;;;17.16;48.40
22753;BME280;11543;43.144;24.684;2022-11-03T03:10:42;99268.72;;;17.19;48.16
22753;BME280;11543;43.144;24.684;2022-11-03T03:13:13;99266.94;;;17.11;48.20
22753;BME280;11543;43.144;24.684;2022-11-03T03:21:02;99286.59;;;17.43;47.73
22753;BME280;11543;43.144;24.684;2022-11-03T03:23:33;99283.50;;;17.46;47.49
22753;BME280;11543;43.144;24.684;2022-11-03T03:26:04;99294.81;;;17.49;47.42
22753;BME280;11543;43.144;24.684;2022-11-03T03:28:53;99307.63;;;17.56;47.39
22753;BME280;11543;43.144;24.684;2022-11-03T03:31:18;99298.38;;;17.50;47.28
22753;BME280;11543;43.144;24.684;2022-11-03T03:33:46;99311.44;;;17.61;47.09
22753;BME280;11543;43.144;24.684;2022-11-03T03:36:16;99294.25;;;17.54;47.13
22753;BME280;11543;43.144;24.684;2022-11-03T03:38:49;99311.44;;;17.61;47.15
22753;BME280;11543;43.144;24.684;2022-11-03T03:41:16;99283.22;;;17.41;47.20
22753;BME280;11543;43.144;24.684;2022-11-03T03:43:57;99316.25;;;17.44;47.41
22753;BME280;11543;43.144;24.684;2022-11-03T03:46:28;99312.41;;;17.39;47.39
22753;BME280;11543;43.144;24.684;2022-11-03T03:48:55;99301.38;;;17.40;47.57
22753;BME280;11543;43.144;24.684;2022-11-03T03:51:22;99302.84;;;17.43;47.59
22753;BME280;11543;43.144;24.684;2022-11-03T03:53:50;99311.66;;;17.45;47.62
22753;BME280;11543;43.144;24.684;2022-11-03T03:56:41;99297.22;;;17.30;47.46
22753;BME280;11543;43.144;24.684;2022-11-03T03:59:04;99313.72;;;17.43;47.63
22753;BME280;11543;43.144;24.684;2022-11-03T04:01:29;99309.03;;;17.37;47.88
22753;BME280;11543;43.144;24.684;2022-11-03T04:03:54;99314.81;;;17.34;47.85
22753;BME280;11543;43.144;24.684;2022-11-03T04:06:20;99313.50;;;17.30;48.18
22753;BME280;11543;43.144;24.684;2022-11-03T04:08:45;99297.97;;;17.24;47.98
22753;BME280;11543;43.144;24.684;2022-11-03T04:11:11;99319.28;;;17.27;48.10
22753;BME280;11543;43.144;24.684;2022-11-03T04:13:55;99317.41;;;17.12;48.62
22753;BME280;11543;43.144;24.684;2022-11-03T04:16:39;99317.50;;;17.04;48.84
22753;BME280;11543;43.144;24.684;2022-11-03T04:19:22;99329.00;;;17.06;49.54
22753;BME280;11543;43.144;24.684;2022-11-03T04:22:07;99325.56;;;16.75;50.55
22753;BME280;11543;43.144;24.684;2022-11-03T04:24:49;99325.88;;;16.80;50.70
22753;BME280;11543;43.144;24.684;2022-11-03T04:30:05;99324.00;;;16.80;50.71
22753;BME280;11543;43.144;24.684;2022-11-03T04:32:32;99306.25;;;16.78;50.57
22753;BME280;11543;43.144;24.684;2022-11-03T04:34:58;99319.78;;;16.78;50.99
22753;BME280;11543;43.144;24.684;2022-11-03T04:37:27;99314.72;;;16.75;50.94
22753;BME280;11543;43.144;24.684;2022-11-03T04:40:09;99309.38;;;16.67;51.13
22753;BME280;11543;43.144;24.684;2022-11-03T04:42:37;99305.84;;;16.66;51.08
22753;BME280;11543;43.144;24.684;2022-11-03T04:45:22;99313.13;;;16.66;51.15
22753;BME280;11543;43.144;24.684;2022-11-03T04:47:48;99315.84;;;16.66;51.33
22753;BME280;11543;43.144;24.684;2022-11-03T04:50:18;99303.78;;;16.68;51.24
22753;BME280;11543;43.144;24.684;2022-11-03T04:52:45;99325.88;;;16.57;51.79
22753;BME280;11543;43.144;24.684;2022-11-03T04:55:15;99312.44;;;16.64;51.63
22753;BME280;11543;43.144;24.684;2022-11-03T04:57:43;99322.69;;;16.53;52.03
22753;BME280;11543;43.144;24.684;2022-11-03T05:00:14;99319.78;;;16.55;52.08
22753;BME280;11543;43.144;24.684;2022-11-03T05:02:42;99329.69;;;16.71;51.95
22753;BME280;11543;43.144;24.684;2022-11-03T05:05:19;99322.19;;;16.73;51.53
22753;BME280;11543;43.144;24.684;2022-11-03T05:07:51;99324.47;;;16.84;51.11
22753;BME280;11543;43.144;24.684;2022-11-03T05:10:24;99332.53;;;16.92;51.07
22753;BME280;11543;43.144;24.684;2022-11-03T05:12:50;99316.56;;;16.97;50.92
22753;BME280;11543;43.144;24.684;2022-11-03T05:15:36;99330.69;;;17.07;50.68
22753;BME280;11543;43.144;24.684;2022-11-03T05:21:02;99324.34;;;17.15;50.30
22753;BME280;11543;43.144;24.684;2022-11-03T05:23:49;99340.63;;;17.30;50.06
22753;BME280;11543;43.144;24.684;2022-11-03T05:26:23;99335.19;;;17.30;50.07
22753;BME280;11543;43.144;24.684;2022-11-03T05:28:51;99335.56;;;17.27;49.95
22753;BME280;11543;43.144;24.684;2022-11-03T05:31:25;99340.25;;;17.33;49.73
22753;BME280;11543;43.144;24.684;2022-11-03T05:33:52;99347.84;;;17.37;49.73
22753;BME280;11543;43.144;24.684;2022-11-03T05:36:25;99355.44;;;17.42;49.72
22753;BME280;11543;43.144;24.684;2022-11-03T05:38:54;99354.97;;;17.38;49.89
22753;BME280;11543;43.144;24.684;2022-11-03T05:41:25;99354.13;;;17.38;49.85
22753;BME280;11543;43.144;24.684;2022-11-03T05:44:08;99354.50;;;17.35;49.97
22753;BME280;11543;43.144;24.684;2022-11-03T05:46:38;99362.31;;;17.30;50.17
22753;BME280;11543;43.144;24.684;2022-11-03T05:49:08;99370.03;;;17.41;50.03
22753;BME280;11543;43.144;24.684;2022-11-03T05:51:38;99375.03;;;17.29;50.44
22753;BME280;11543;43.144;24.684;2022-11-03T05:54:08;99371.47;;;17.29;50.37
22753;BME280;11543;43.144;24.684;2022-11-03T05:56:38;99376.53;;;17.32;50.42
22753;BME280;11543;43.144;24.684;2022-11-03T05:59:03;99378.59;;;17.30;50.56
22753;BME280;11543;43.144;24.684;2022-11-03T06:01:36;99395.97;;;17.20;51.22
22753;BME280;11543;43.144;24.684;2022-11-03T06:04:32;99403.31;;;17.35;50.90
22753;BME280;11543;43.144;24.684;2022-11-03T06:07:06;99404.63;;;17.39;50.84
22753;BME280;11543;43.144;24.684;2022-11-03T06:09:35;99393.03;;;17.45;50.70
22753;BME280;11543;43.144;24.684;2022-11-03T06:12:01;99403.88;;;17.45;50.81
22753;BME280;11543;43.144;24.684;2022-11-03T06:14:30;99396.03;;;17.50;50.81
22753;BME280;11543;43.144;24.684;2022-11-03T06:17:06;99401.66;;;17.63;50.58
22753;BME280;11543;43.144;24.684;2022-11-03T06:19:37;99401.41;;;17.73;50.29
22753;BME280;11543;43.144;24.684;2022-11-03T06:22:35;99400.19;;;17.75;50.23
22753;BME280;11543;43.144;24.684;2022-11-03T06:27:50;99403.06;;;17.89;49.98
22753;BME280;11543;43.144;24.684;2022-11-03T06:30:28;99415.97;;;18.01;49.97
22753;BME280;11543;43.144;24.684;2022-11-03T06:32:57;99401.56;;;18.01;49.51
22753;BME280;11543;43.144;24.684;2022-11-03T06:35:24;99391.75;;;18.00;49.62
22753;BME280;11543;43.144;24.684;2022-11-03T06:37:49;99406.78;;;18.17;49.50
22753;BME280;11543;43.144;24.684;2022-11-03T06:40:31;99423.00;;;18.25;49.34
22753;BME280;11543;43.144;24.684;2022-11-03T06:42:57;99408.28;;;18.20;49.18
22753;BME280;11543;43.144;24.684;2022-11-03T06:45:24;99414.19;;;18.23;49.24
22753;BME280;11543;43.144;24.684;2022-11-03T06:47:51;99423.94;;;18.32;49.15
22753;BME280;11543;43.144;24.684;2022-11-03T06:50:32;99421.03;;;18.34;48.64
22753;BME280;11543;43.144;24.684;2022-11-03T06:53:02;99416.88;;;18.38;48.68
22753;BME280;11543;43.144;24.684;2022-11-03T06:55:33;99422.25;;;18.31;48.71
22753;BME280;11543;43.144;24.684;2022-11-03T06:58:06;99413.06;;;18.32;48.61
22753;BME280;11543;43.144;24.684;2022-11-03T07:00:37;99407.34;;;18.27;48.47
22753;BME280;11543;43.144;24.684;2022-11-03T07:03:17;99424.84;;;18.39;48.65
22753;BME280;11543;43.144;24.684;2022-11-03T07:05:45;99426.53;;;18.40;48.39
22753;BME280;11543;43.144;24.684;2022-11-03T07:10:50;99443.88;;;18.39;48.79
22753;BME280;11543;43.144;24.684;2022-11-03T07:13:19;99433.56;;;18.35;49.01
22753;BME280;11543;43.144;24.684;2022-11-03T07:15:47;99444.50;;;18.41;48.75
22753;BME280;11543;43.144;24.684;2022-11-03T07:18:29;99441.16;;;18.39;48.90
22753;BME280;11543;43.144;24.684;2022-11-03T07:20:57;99438.69;;;18.44;48.58
22753;BME280;11543;43.144;24.684;2022-11-03T07:23:29;99428.22;;;18.41;48.91
22753;BME280;11543;43.144;24.684;2022-11-03T07:25:58;99443.28;;;18.44;48.66
22753;BME280;11543;43.144;24.684;2022-11-03T07:28:33;99437.41;;;18.40;48.57
22753;BME280;11543;43.144;24.684;2022-11-03T07:31:00;99419.78;;;18.36;48.37
22753;BME280;11543;43.144;24.684;2022-11-03T07:33:30;99424.84;;;18.39;48.27
22753;BME280;11543;43.144;24.684;2022-11-03T07:35:57;99441.28;;;18.53;48.28
22753;BME280;11543;43.144;24.684;2022-11-03T07:38:23;99421.75;;;18.42;48.45
22753;BME280;11543;43.144;24.684;2022-11-03T07:40:54;99424.84;;;18.39;48.51
22753;BME280;11543;43.144;24.684;2022-11-03T07:43:33;99448.03;;;18.57;48.36
22753;BME280;11543;43.144;24.684;2022-11-03T07:46:01;99448.97;;;18.64;48.32
22753;BME280;11543;43.144;24.684;2022-11-03T07:48:44;99442.97;;;18.54;48.67
22753;BME280;11543;43.144;24.684;2022-11-03T07:51:28;99436.97;;;18.58;48.63
22753;BME280;11543;43.144;24.684;2022-11-03T07:54:01;99422.00;;;18.48;48.63
22753;BME280;11543;43.144;24.684;2022-11-03T07:57:00;99439.78;;;18.65;48.61
22753;BME280;11543;43.144;24.684;2022-11-03T07:59:35;99426.75;;;18.60;48.45
22753;BME280;11543;43.144;24.684;2022-11-03T08:02:01;99425.44;;;18.71;48.60
22753;BME280;11543;43.144;24.684;2022-11-03T08:04:36;99434.50;;;18.78;48.32
22753;BME280;11543;43.144;24.684;2022-11-03T08:07:01;99429.19;;;18.91;48.11
22753;BME280;11543;43.144;24.684;2022-11-03T08:09:27;99419.16;;;18.92;47.99
22753;BME280;11543;43.144;24.684;2022-11-03T08:11:52;99427.25;;;19.06;47.75
22753;BME280;11543;43.144;24.684;2022-11-03T08:14:18;99420.66;;;19.16;47.62
22753;BME280;11543;43.144;24.684;2022-11-03T08:16:44;99431.25;;;19.32;47.42
22753;BME280;11543;43.144;24.684;2022-11-03T08:19:10;99430.06;;;19.41;47.33
22753;BME280;11543;43.144;24.684;2022-11-03T08:21:35;99414.78;;;19.40;46.76
22753;BME280;11543;43.144;24.684;2022-11-03T08:24:01;99409.38;;;19.47;46.67
22753;BME280;11543;43.144;24.684;2022-11-03T08:26:26;99411.78;;;19.56;46.41
22753;BME280;11543;43.144;24.684;2022-11-03T08:28:52;99413.72;;;19.62;46.05
22753;BME280;11543;43.144;24.684;2022-11-03T08:31:17;99406.44;;;19.69;46.38
22753;BME280;11543;43.144;24.684;2022-11-03T08:33:43;99416.13;;;19.79;46.60
22753;BME280;11543;43.144;24.684;2022-11-03T08:36:09;99406.91;;;19.80;45.83
22753;BME280;11543;43.144;24.684;2022-11-03T08:38:35;99415.00;;;20.01;45.89
22753;BME280;11543;43.144;24.684;2022-11-03T08:41:01;99405.41;;;20.05;45.24
22753;BME280;11543;43.144;24.684;2022-11-03T08:43:26;99410.03;;;20.11;45.30
22753;BME280;11543;43.144;24.684;2022-11-03T08:45:52;99413.03;;;20.29;44.68
22753;BME280;11543;43.144;24.684;2022-11-03T08:48:19;99411.44;;;20.42;44.27
22753;BME280;11543;43.144;24.684;2022-11-03T08:50:45;99400.03;;;20.31;44.55
22753;BME280;11543;43.144;24.684;2022-11-03T08:53:11;99391.06;;;20.38;44.36
22753;BME280;11543;43.144;24.684;2022-11-03T08:55:37;99408.53;;;20.50;43.59
22753;BME280;11543;43.144;24.684;2022-11-03T08:58:02;99390.50;;;20.49;43.44
22753;BME280;11543;43.144;24.684;2022-11-03T09:00:27;99397.63;;;20.50;43.43
22753;BME280;11543;43.144;24.684;2022-11-03T09:02:53;99396.56;;;20.51;43.20
22753;BME280;11543;43.144;24.684;2022-11-03T09:05:18;99403.94;;;20.63;43.25
22753;BME280;11543;43.144;24.684;2022-11-03T09:07:44;99399.34;;;20.64;43.05
22753;BME280;11543;43.144;24.684;2022-11-03T09:10:09;99399.75;;;20.67;43.43
22753;BME280;11543;43.144;24.684;2022-11-03T09:12:36;99390.97;;;20.72;42.54
22753;BME280;11543;43.144;24.684;2022-11-03T09:15:03;99386.78;;;20.76;42.31
22753;BME280;11543;43.144;24.684;2022-11-03T09:17:28;99386.34;;;20.79;42.36
22753;BME280;11543;43.144;24.684;2022-11-03T09:19:54;99375.84;;;20.76;43.03
22753;BME280;11543;43.144;24.684;2022-11-03T09:22:20;99373.38;;;20.88;42.16
22753;BME280;11543;43.144;24.684;2022-11-03T09:24:46;99370.25;;;20.97;41.88
22753;BME280;11543;43.144;24.684;2022-11-03T09:27:12;99369.81;;;21.01;41.73
22753;BME280;11543;43.144;24.684;2022-11-03T09:29:37;99375.91;;;21.03;41.69
22753;BME280;11543;43.144;24.684;2022-11-03T09:32:03;99356.19;;;21.01;41.36
22753;BME280;11543;43.144;24.684;2022-11-03T09:34:28;99337.28;;;20.92;41.42
22753;BME280;11543;43.144;24.684;2022-11-03T09:36:54;99354.50;;;21.06;41.45
22753;BME280;11543;43.144;24.684;2022-11-03T09:39:20;99359.13;;;21.06;41.07
22753;BME280;11543;43.144;24.684;2022-11-03T09:41:46;99343.81;;;21.05;40.84
22753;BME280;11543;43.144;24.684;2022-11-03T09:44:11;99345.47;;;21.06;40.62
22753;BME280;11543;43.144;24.684;2022-11-03T09:46:37;99342.75;;;20.99;40.91
22753;BME280;11543;43.144;24.684;2022-11-03T09:49:04;99357.44;;;21.18;40.95
22753;BME280;11543;43.144;24.684;2022-11-03T09:51:30;99341.91;;;21.18;41.30
22753;BME280;11543;43.144;24.684;2022-11-03T09:53:58;99349.88;;;21.33;41.25
22753;BME280;11543;43.144;24.684;2022-11-03T09:56:26;99345.69;;;21.30;41.01
22753;BME280;11543;43.144;24.684;2022-11-03T09:58:52;99338.56;;;21.36;40.82
22753;BME280;11543;43.144;24.684;2022-11-03T10:01:17;99331.38;;;21.48;41.05
22753;BME280;11543;43.144;24.684;2022-11-03T10:03:43;99335.56;;;21.57;40.52
22753;BME280;11543;43.144;24.684;2022-11-03T10:06:09;99335.13;;;21.60;40.47
22753;BME280;11543;43.144;24.684;2022-11-03T10:08:37;99330.09;;;21.57;39.94
22753;BME280;11543;43.144;24.684;2022-11-03T10:11:06;99331.78;;;21.72;40.00
22753;BME280;11543;43.144;24.684;2022-11-03T10:13:35;99328.81;;;21.80;40.06
22753;BME280;11543;43.144;24.684;2022-11-03T10:16:04;99322.03;;;21.89;40.22
22753;BME280;11543;43.144;24.684;2022-11-03T10:18:34;99313.16;;;22.00;39.88
22753;BME280;11543;43.144;24.684;2022-11-03T10:21:14;99319.47;;;22.07;39.68
22753;BME280;11543;43.144;24.684;2022-11-03T10:23:40;99306.03;;;21.99;39.28
22753;BME280;11543;43.144;24.684;2022-11-03T10:26:17;99316.50;;;22.09;39.25
22753;BME280;11543;43.144;24.684;2022-11-03T10:29:00;99314.41;;;22.11;39.43
22753;BME280;11543;43.144;24.684;2022-11-03T10:31:40;99316.13;;;22.05;39.56
22753;BME280;11543;43.144;24.684;2022-11-03T10:37:20;99298.41;;;22.14;38.98
22753;BME280;11543;43.144;24.684;2022-11-03T10:39:48;99291.66;;;22.17;39.33
22753;BME280;11543;43.144;24.684;2022-11-03T10:42:34;99295.44;;;22.16;38.92
22753;BME280;11543;43.144;24.684;2022-11-03T10:45:17;99289.75;;;22.17;39.47
22753;BME280;11543;43.144;24.684;2022-11-03T10:47:43;99287.16;;;21.91;39.33
22753;BME280;11543;43.144;24.684;2022-11-03T10:50:21;99289.63;;;21.99;39.57
22753;BME280;11543;43.144;24.684;2022-11-03T10:52:48;99288.78;;;22.05;39.38
22753;BME280;11543;43.144;24.684;2022-11-03T10:55:14;99294.44;;;22.10;39.62
22753;BME280;11543;43.144;24.684;2022-11-03T10:57:40;99281.81;;;22.09;39.76
22753;BME280;11543;43.144;24.684;2022-11-03T11:00:17;99285.19;;;22.11;39.45
22753;BME280;11543;43.144;24.684;2022-11-03T11:02:47;99271.06;;;22.14;39.59
22753;BME280;11543;43.144;24.684;2022-11-03T11:05:20;99270.72;;;22.04;39.20
22753;BME280;11543;43.144;24.684;2022-11-03T11:07:47;99276.97;;;22.11;39.21
22753;BME280;11543;43.144;24.684;2022-11-03T11:10:21;99268.19;;;22.03;39.37
22753;BME280;11543;43.144;24.684;2022-11-03T11:18:07;99264.09;;;22.18;39.12
22753;BME280;11543;43.144;24.684;2022-11-03T11:20:35;99250.03;;;22.15;38.89
22753;BME280;11543;43.144;24.684;2022-11-03T11:28:33;99254.59;;;22.59;38.14
22753;BME280;11543;43.144;24.684;2022-11-03T11:47:25;99235.63;;;23.69;35.89
22753;BME280;11543;43.144;24.684;2022-11-03T11:53:09;99227.41;;;23.69;36.08
22753;BME280;11543;43.144;24.684;2022-11-03T11:55:42;99230.44;;;23.79;36.07
22753;BME280;11543;43.144;24.684;2022-11-03T11:58:24;99220.56;;;23.78;35.79
22753;BME280;11543;43.144;24.684;2022-11-03T12:00:52;99219.28;;;23.92;35.76
22753;BME280;11543;43.144;24.684;2022-11-03T12:03:23;99211.03;;;23.80;36.07
22753;BME280;11543;43.144;24.684;2022-11-03T12:05:49;99213.53;;;23.82;35.84
22753;BME280;11543;43.144;24.684;2022-11-03T12:08:19;99217.03;;;23.89;35.65
22753;BME280;11543;43.144;24.684;2022-11-03T12:10:54;99206.47;;;24.04;34.99
22753;BME280;11543;43.144;24.684;2022-11-03T12:13:43;99208.94;;;23.94;35.11
22753;BME280;11543;43.144;24.684;2022-11-03T12:16:34;99196.63;;;23.85;35.10
22753;BME280;11543;43.144;24.684;2022-11-03T12:19:38;99204.72;;;23.80;35.71
22753;BME280;11543;43.144;24.684;2022-11-03T12:24:59;99202.13;;;23.85;35.61
22753;BME280;11543;43.144;24.684;2022-11-03T12:29:59;99201.38;;;23.78;35.24
22753;BME280;11543;43.144;24.684;2022-11-03T12:32:25;99199.69;;;23.77;35.41
22753;BME280;11543;43.144;24.684;2022-11-03T12:34:51;99197.28;;;23.69;35.72
22753;BME280;11543;43.144;24.684;2022-11-03T12:37:19;99197.88;;;23.52;35.66
22753;BME280;11543;43.144;24.684;2022-11-03T12:39:44;99193.31;;;23.46;35.86
22753;BME280;11543;43.144;24.684;2022-11-03T12:42:09;99192.13;;;23.42;36.31
22753;BME280;11543;43.144;24.684;2022-11-03T12:44:35;99174.00;;;23.41;36.22
22753;BME280;11543;43.144;24.684;2022-11-03T12:47:03;99170.66;;;23.58;35.81
22753;BME280;11543;43.144;24.684;2022-11-03T12:49:28;99185.84;;;23.72;35.83
22753;BME280;11543;43.144;24.684;2022-11-03T12:51:54;99170.81;;;23.63;35.73
22753;BME280;11543;43.144;24.684;2022-11-03T12:54:20;99173.22;;;23.71;35.87
22753;BME280;11543;43.144;24.684;2022-11-03T12:56:46;99159.72;;;23.58;35.46
22753;BME280;11543;43.144;24.684;2022-11-03T12:59:12;99168.50;;;23.78;34.98
22753;BME280;11543;43.144;24.684;2022-11-03T13:01:38;99166.81;;;23.77;35.27
22753;BME280;11543;43.144;24.684;2022-11-03T13:04:03;99180.06;;;23.80;35.14
22753;BME280;11543;43.144;24.684;2022-11-03T13:06:30;99168.75;;;23.88;35.21
22753;BME280;11543;43.144;24.684;2022-11-03T13:08:56;99167.72;;;24.01;34.42
22753;BME280;11543;43.144;24.684;2022-11-03T13:11:21;99168.34;;;24.14;35.03
22753;BME280;11543;43.144;24.684;2022-11-03T13:14:05;99163.25;;;24.18;34.86
22753;BME280;11543;43.144;24.684;2022-11-03T13:16:30;99168.25;;;24.21;34.74
22753;BME280;11543;43.144;24.684;2022-11-03T13:18:56;99162.13;;;24.07;34.58
22753;BME280;11543;43.144;24.684;2022-11-03T13:21:21;99163.44;;;24.05;34.73
22753;BME280;11543;43.144;24.684;2022-11-03T13:23:47;99170.22;;;24.02;34.10
22753;BME280;11543;43.144;24.684;2022-11-03T13:26:12;99142.75;;;23.79;33.80
22753;BME280;11543;43.144;24.684;2022-11-03T13:28:38;99161.34;;;23.77;33.93
22753;BME280;11543;43.144;24.684;2022-11-03T13:31:03;99164.88;;;23.66;34.43
22753;BME280;11543;43.144;24.684;2022-11-03T13:33:29;99156.50;;;23.61;34.40
22753;BME280;11543;43.144;24.684;2022-11-03T13:35:54;99150.66;;;23.57;33.97
22753;BME280;11543;43.144;24.684;2022-11-03T13:38:20;99163.19;;;23.65;33.91
22753;BME280;11543;43.144;24.684;2022-11-03T13:40:46;99166.41;;;23.62;34.13
22753;BME280;11543;43.144;24.684;2022-11-03T13:43:11;99154.38;;;23.44;34.50
22753;BME280;11543;43.144;24.684;2022-11-03T13:45:37;99148.44;;;23.29;34.30
22753;BME280;11543;43.144;24.684;2022-11-03T13:48:02;99164.41;;;23.32;34.54
22753;BME280;11543;43.144;24.684;2022-11-03T13:50:27;99161.75;;;23.07;34.87
22753;BME280;11543;43.144;24.684;2022-11-03T13:52:53;99172.47;;;23.09;35.33
22753;BME280;11543;43.144;24.684;2022-11-03T13:55:18;99171.78;;;23.13;35.00
22753;BME280;11543;43.144;24.684;2022-11-03T13:57:46;99173.31;;;23.28;35.06
22753;BME280;11543;43.144;24.684;2022-11-03T14:00:12;99168.06;;;23.26;35.04
22753;BME280;11543;43.144;24.684;2022-11-03T14:02:39;99167.47;;;23.24;35.03
22753;BME280;11543;43.144;24.684;2022-11-03T14:05:07;99162.44;;;23.21;35.17
22753;BME280;11543;43.144;24.684;2022-11-03T14:07:35;99176.66;;;23.30;35.25
22753;BME280;11543;43.144;24.684;2022-11-03T14:10:01;99172.63;;;23.14;35.31
22753;BME280;11543;43.144;24.684;2022-11-03T14:12:26;99181.69;;;23.14;35.63